<?xml version="1.0" encoding="UTF-8" standalone="no" ?>
<gpx xmlns="http://www.topografix.com/GPX/1/1" xmlns:xsi="http://www.w3.org/2001/XMLSchema-instance" xsi:schemaLocation="http://www.topografix.com/GPX/1/1 http://www.topografix.com/GPX/1/1/gpx.xsd" version="1.1" creator="VisuGPX - https://www.visugpx.com">
  <metadata>
    <name>Sortie vélo dans l'après-midi</name>
  </metadata>
  <trk>
    <name><![CDATA[Sortie vélo dans l'après-midi_1]]></name>
    <trkseg>
      <trkpt lat="46.64361" lon="6.14123">
        <ele>1140</ele>
        <time>2024-01-16T16:24:17Z</time>
      </trkpt>
      <trkpt lat="46.64359" lon="6.14125">
        <ele>1139.8</ele>
        <time>2024-01-16T16:24:20Z</time>
      </trkpt>
      <trkpt lat="46.64304" lon="6.14135">
        <ele>1138.1</ele>
        <time>2024-01-16T16:24:36Z</time>
      </trkpt>
      <trkpt lat="46.64251" lon="6.14164">
        <ele>1137.8</ele>
        <time>2024-01-16T16:24:53Z</time>
      </trkpt>
      <trkpt lat="46.64197" lon="6.14179">
        <ele>1138.7</ele>
        <time>2024-01-16T16:25:12Z</time>
      </trkpt>
      <trkpt lat="46.64145" lon="6.14184">
        <ele>1136.3</ele>
        <time>2024-01-16T16:25:27Z</time>
      </trkpt>
      <trkpt lat="46.64131" lon="6.1419">
        <ele>1135.6</ele>
        <time>2024-01-16T16:25:30Z</time>
      </trkpt>
      <trkpt lat="46.64122" lon="6.14193">
        <ele>1135.4</ele>
        <time>2024-01-16T16:25:32Z</time>
      </trkpt>
      <trkpt lat="46.64113" lon="6.14196">
        <ele>1135.1</ele>
        <time>2024-01-16T16:25:34Z</time>
      </trkpt>
      <trkpt lat="46.64087" lon="6.14214">
        <ele>1133.2</ele>
        <time>2024-01-16T16:25:42Z</time>
      </trkpt>
      <trkpt lat="46.64064" lon="6.14237">
        <ele>1130.1</ele>
        <time>2024-01-16T16:25:47Z</time>
      </trkpt>
      <trkpt lat="46.64035" lon="6.14256">
        <ele>1130.1</ele>
        <time>2024-01-16T16:25:53Z</time>
      </trkpt>
      <trkpt lat="46.64016" lon="6.1433">
        <ele>1135.8</ele>
        <time>2024-01-16T16:26:09Z</time>
      </trkpt>
      <trkpt lat="46.64045" lon="6.14393">
        <ele>1135</ele>
        <time>2024-01-16T16:26:24Z</time>
      </trkpt>
      <trkpt lat="46.64086" lon="6.14397">
        <ele>1133.5</ele>
        <time>2024-01-16T16:26:34Z</time>
      </trkpt>
      <trkpt lat="46.64096" lon="6.144">
        <ele>1134.1</ele>
        <time>2024-01-16T16:26:36Z</time>
      </trkpt>
      <trkpt lat="46.6414" lon="6.14451">
        <ele>1142.3</ele>
        <time>2024-01-16T16:26:52Z</time>
      </trkpt>
      <trkpt lat="46.6414" lon="6.14456">
        <ele>1142.4</ele>
        <time>2024-01-16T16:26:53Z</time>
      </trkpt>
      <trkpt lat="46.64138" lon="6.14463">
        <ele>1142.3</ele>
        <time>2024-01-16T16:26:55Z</time>
      </trkpt>
      <trkpt lat="46.64085" lon="6.14491">
        <ele>1141.9</ele>
        <time>2024-01-16T16:27:14Z</time>
      </trkpt>
      <trkpt lat="46.64036" lon="6.14528">
        <ele>1142.5</ele>
        <time>2024-01-16T16:27:30Z</time>
      </trkpt>
      <trkpt lat="46.64001" lon="6.14588">
        <ele>1145.7</ele>
        <time>2024-01-16T16:27:49Z</time>
      </trkpt>
      <trkpt lat="46.63957" lon="6.14636">
        <ele>1148.6</ele>
        <time>2024-01-16T16:28:08Z</time>
      </trkpt>
      <trkpt lat="46.63913" lon="6.14684">
        <ele>1154.3</ele>
        <time>2024-01-16T16:28:32Z</time>
      </trkpt>
      <trkpt lat="46.63865" lon="6.14717">
        <ele>1160.1</ele>
        <time>2024-01-16T16:28:57Z</time>
      </trkpt>
      <trkpt lat="46.63818" lon="6.14688">
        <ele>1165.3</ele>
        <time>2024-01-16T16:29:21Z</time>
      </trkpt>
      <trkpt lat="46.63777" lon="6.14741">
        <ele>1168.7</ele>
        <time>2024-01-16T16:29:41Z</time>
      </trkpt>
      <trkpt lat="46.63727" lon="6.14775">
        <ele>1175.2</ele>
        <time>2024-01-16T16:30:08Z</time>
      </trkpt>
      <trkpt lat="46.63682" lon="6.14811">
        <ele>1175.8</ele>
        <time>2024-01-16T16:30:25Z</time>
      </trkpt>
      <trkpt lat="46.63663" lon="6.14834">
        <ele>1175.4</ele>
        <time>2024-01-16T16:30:32Z</time>
      </trkpt>
      <trkpt lat="46.63657" lon="6.14843">
        <ele>1175.3</ele>
        <time>2024-01-16T16:30:34Z</time>
      </trkpt>
      <trkpt lat="46.63622" lon="6.14904">
        <ele>1178.9</ele>
        <time>2024-01-16T16:30:54Z</time>
      </trkpt>
      <trkpt lat="46.63585" lon="6.14964">
        <ele>1185.6</ele>
        <time>2024-01-16T16:31:23Z</time>
      </trkpt>
      <trkpt lat="46.63542" lon="6.15011">
        <ele>1187.8</ele>
        <time>2024-01-16T16:31:44Z</time>
      </trkpt>
      <trkpt lat="46.6353" lon="6.15018">
        <ele>1187.7</ele>
        <time>2024-01-16T16:31:47Z</time>
      </trkpt>
      <trkpt lat="46.63506" lon="6.15025">
        <ele>1187</ele>
        <time>2024-01-16T16:31:52Z</time>
      </trkpt>
      <trkpt lat="46.63484" lon="6.15028">
        <ele>1185.8</ele>
        <time>2024-01-16T16:31:56Z</time>
      </trkpt>
      <trkpt lat="46.63472" lon="6.15031">
        <ele>1184.8</ele>
        <time>2024-01-16T16:31:58Z</time>
      </trkpt>
      <trkpt lat="46.63462" lon="6.15044">
        <ele>1184</ele>
        <time>2024-01-16T16:32:00Z</time>
      </trkpt>
      <trkpt lat="46.63459" lon="6.15061">
        <ele>1183.8</ele>
        <time>2024-01-16T16:32:02Z</time>
      </trkpt>
      <trkpt lat="46.63447" lon="6.15138">
        <ele>1187.5</ele>
        <time>2024-01-16T16:32:24Z</time>
      </trkpt>
      <trkpt lat="46.63424" lon="6.15209">
        <ele>1190.2</ele>
        <time>2024-01-16T16:32:45Z</time>
      </trkpt>
      <trkpt lat="46.63384" lon="6.15261">
        <ele>1192.4</ele>
        <time>2024-01-16T16:33:03Z</time>
      </trkpt>
      <trkpt lat="46.63369" lon="6.15336">
        <ele>1194.6</ele>
        <time>2024-01-16T16:33:20Z</time>
      </trkpt>
      <trkpt lat="46.63338" lon="6.15399">
        <ele>1199.2</ele>
        <time>2024-01-16T16:33:42Z</time>
      </trkpt>
      <trkpt lat="46.63319" lon="6.1543">
        <ele>1201.1</ele>
        <time>2024-01-16T16:33:59Z</time>
      </trkpt>
      <trkpt lat="46.63315" lon="6.15433">
        <ele>1201.2</ele>
        <time>2024-01-16T16:34:32Z</time>
      </trkpt>
      <trkpt lat="46.63263" lon="6.15442">
        <ele>1203.6</ele>
        <time>2024-01-16T16:34:54Z</time>
      </trkpt>
      <trkpt lat="46.63206" lon="6.15429">
        <ele>1206.8</ele>
        <time>2024-01-16T16:35:15Z</time>
      </trkpt>
      <trkpt lat="46.63184" lon="6.15428">
        <ele>1206</ele>
        <time>2024-01-16T16:35:20Z</time>
      </trkpt>
      <trkpt lat="46.63132" lon="6.15453">
        <ele>1209.8</ele>
        <time>2024-01-16T16:35:42Z</time>
      </trkpt>
      <trkpt lat="46.63092" lon="6.155">
        <ele>1212.6</ele>
        <time>2024-01-16T16:36:03Z</time>
      </trkpt>
      <trkpt lat="46.63072" lon="6.15562">
        <ele>1216.8</ele>
        <time>2024-01-16T16:36:27Z</time>
      </trkpt>
      <trkpt lat="46.63038" lon="6.15622">
        <ele>1219.9</ele>
        <time>2024-01-16T16:36:48Z</time>
      </trkpt>
      <trkpt lat="46.63015" lon="6.1566">
        <ele>1219.5</ele>
        <time>2024-01-16T16:36:58Z</time>
      </trkpt>
      <trkpt lat="46.63009" lon="6.15692">
        <ele>1218.6</ele>
        <time>2024-01-16T16:37:02Z</time>
      </trkpt>
      <trkpt lat="46.63009" lon="6.15706">
        <ele>1218.5</ele>
        <time>2024-01-16T16:37:04Z</time>
      </trkpt>
      <trkpt lat="46.63016" lon="6.15734">
        <ele>1218.4</ele>
        <time>2024-01-16T16:37:09Z</time>
      </trkpt>
      <trkpt lat="46.63017" lon="6.15746">
        <ele>1218.2</ele>
        <time>2024-01-16T16:37:11Z</time>
      </trkpt>
      <trkpt lat="46.63012" lon="6.15763">
        <ele>1218.2</ele>
        <time>2024-01-16T16:37:14Z</time>
      </trkpt>
      <trkpt lat="46.6297" lon="6.15813">
        <ele>1222.1</ele>
        <time>2024-01-16T16:37:39Z</time>
      </trkpt>
      <trkpt lat="46.62929" lon="6.15867">
        <ele>1227.3</ele>
        <time>2024-01-16T16:38:05Z</time>
      </trkpt>
      <trkpt lat="46.62896" lon="6.1593">
        <ele>1233.9</ele>
        <time>2024-01-16T16:38:33Z</time>
      </trkpt>
      <trkpt lat="46.62896" lon="6.1601">
        <ele>1233.7</ele>
        <time>2024-01-16T16:38:49Z</time>
      </trkpt>
      <trkpt lat="46.6287" lon="6.16072">
        <ele>1237.4</ele>
        <time>2024-01-16T16:39:10Z</time>
      </trkpt>
      <trkpt lat="46.62847" lon="6.16144">
        <ele>1243.4</ele>
        <time>2024-01-16T16:39:37Z</time>
      </trkpt>
      <trkpt lat="46.6283" lon="6.16219">
        <ele>1245.5</ele>
        <time>2024-01-16T16:39:57Z</time>
      </trkpt>
      <trkpt lat="46.62839" lon="6.16289">
        <ele>1247.9</ele>
        <time>2024-01-16T16:40:16Z</time>
      </trkpt>
      <trkpt lat="46.6285" lon="6.16368">
        <ele>1249</ele>
        <time>2024-01-16T16:40:36Z</time>
      </trkpt>
      <trkpt lat="46.62836" lon="6.16444">
        <ele>1249.1</ele>
        <time>2024-01-16T16:40:51Z</time>
      </trkpt>
      <trkpt lat="46.62804" lon="6.16501">
        <ele>1248.2</ele>
        <time>2024-01-16T16:41:03Z</time>
      </trkpt>
      <trkpt lat="46.6276" lon="6.16549">
        <ele>1244.7</ele>
        <time>2024-01-16T16:41:13Z</time>
      </trkpt>
      <trkpt lat="46.62715" lon="6.16602">
        <ele>1242.4</ele>
        <time>2024-01-16T16:41:21Z</time>
      </trkpt>
      <trkpt lat="46.62694" lon="6.16646">
        <ele>1243.3</ele>
        <time>2024-01-16T16:41:31Z</time>
      </trkpt>
      <trkpt lat="46.62741" lon="6.16609">
        <ele>1243.5</ele>
        <time>2024-01-16T16:41:47Z</time>
      </trkpt>
      <trkpt lat="46.62797" lon="6.16594">
        <ele>1248.5</ele>
        <time>2024-01-16T16:42:08Z</time>
      </trkpt>
      <trkpt lat="46.62854" lon="6.16581">
        <ele>1249.9</ele>
        <time>2024-01-16T16:42:23Z</time>
      </trkpt>
      <trkpt lat="46.62906" lon="6.16554">
        <ele>1251.5</ele>
        <time>2024-01-16T16:42:40Z</time>
      </trkpt>
      <trkpt lat="46.62953" lon="6.16513">
        <ele>1253.5</ele>
        <time>2024-01-16T16:43:00Z</time>
      </trkpt>
      <trkpt lat="46.62979" lon="6.16493">
        <ele>1252.8</ele>
        <time>2024-01-16T16:43:09Z</time>
      </trkpt>
      <trkpt lat="46.62989" lon="6.16477">
        <ele>1252.3</ele>
        <time>2024-01-16T16:43:12Z</time>
      </trkpt>
      <trkpt lat="46.63036" lon="6.16437">
        <ele>1255.1</ele>
        <time>2024-01-16T16:43:27Z</time>
      </trkpt>
      <trkpt lat="46.63067" lon="6.1642">
        <ele>1255.1</ele>
        <time>2024-01-16T16:43:35Z</time>
      </trkpt>
      <trkpt lat="46.63112" lon="6.1636">
        <ele>1247.7</ele>
        <time>2024-01-16T16:43:43Z</time>
      </trkpt>
      <trkpt lat="46.63157" lon="6.163">
        <ele>1238.9</ele>
        <time>2024-01-16T16:43:49Z</time>
      </trkpt>
      <trkpt lat="46.63199" lon="6.16239">
        <ele>1234.5</ele>
        <time>2024-01-16T16:43:55Z</time>
      </trkpt>
      <trkpt lat="46.63231" lon="6.16174">
        <ele>1233.1</ele>
        <time>2024-01-16T16:44:02Z</time>
      </trkpt>
      <trkpt lat="46.63233" lon="6.16164">
        <ele>1232.9</ele>
        <time>2024-01-16T16:44:03Z</time>
      </trkpt>
      <trkpt lat="46.63239" lon="6.16136">
        <ele>1232.6</ele>
        <time>2024-01-16T16:44:06Z</time>
      </trkpt>
      <trkpt lat="46.63244" lon="6.16099">
        <ele>1232.7</ele>
        <time>2024-01-16T16:44:10Z</time>
      </trkpt>
      <trkpt lat="46.63242" lon="6.16082">
        <ele>1232.9</ele>
        <time>2024-01-16T16:44:12Z</time>
      </trkpt>
      <trkpt lat="46.6324" lon="6.16069">
        <ele>1233.3</ele>
        <time>2024-01-16T16:44:14Z</time>
      </trkpt>
      <trkpt lat="46.63242" lon="6.15985">
        <ele>1230.9</ele>
        <time>2024-01-16T16:44:28Z</time>
      </trkpt>
      <trkpt lat="46.63246" lon="6.15953">
        <ele>1227.6</ele>
        <time>2024-01-16T16:44:31Z</time>
      </trkpt>
      <trkpt lat="46.63251" lon="6.15884">
        <ele>1224.4</ele>
        <time>2024-01-16T16:44:38Z</time>
      </trkpt>
      <trkpt lat="46.63251" lon="6.15853">
        <ele>1224.6</ele>
        <time>2024-01-16T16:44:42Z</time>
      </trkpt>
      <trkpt lat="46.63246" lon="6.15832">
        <ele>1224.6</ele>
        <time>2024-01-16T16:44:45Z</time>
      </trkpt>
      <trkpt lat="46.63239" lon="6.15819">
        <ele>1224.2</ele>
        <time>2024-01-16T16:44:47Z</time>
      </trkpt>
      <trkpt lat="46.63227" lon="6.15804">
        <ele>1223</ele>
        <time>2024-01-16T16:44:50Z</time>
      </trkpt>
      <trkpt lat="46.63216" lon="6.15798">
        <ele>1222.1</ele>
        <time>2024-01-16T16:44:52Z</time>
      </trkpt>
      <trkpt lat="46.63204" lon="6.15797">
        <ele>1220.8</ele>
        <time>2024-01-16T16:44:54Z</time>
      </trkpt>
      <trkpt lat="46.63192" lon="6.15795">
        <ele>1219.4</ele>
        <time>2024-01-16T16:44:56Z</time>
      </trkpt>
      <trkpt lat="46.63183" lon="6.15783">
        <ele>1217.4</ele>
        <time>2024-01-16T16:44:58Z</time>
      </trkpt>
      <trkpt lat="46.63184" lon="6.15764">
        <ele>1215.1</ele>
        <time>2024-01-16T16:45:00Z</time>
      </trkpt>
      <trkpt lat="46.632" lon="6.15738">
        <ele>1211.2</ele>
        <time>2024-01-16T16:45:03Z</time>
      </trkpt>
      <trkpt lat="46.63213" lon="6.15729">
        <ele>1210.3</ele>
        <time>2024-01-16T16:45:05Z</time>
      </trkpt>
      <trkpt lat="46.63227" lon="6.15726">
        <ele>1209.6</ele>
        <time>2024-01-16T16:45:07Z</time>
      </trkpt>
      <trkpt lat="46.63283" lon="6.15735">
        <ele>1207.2</ele>
        <time>2024-01-16T16:45:17Z</time>
      </trkpt>
      <trkpt lat="46.63294" lon="6.15735">
        <ele>1206.3</ele>
        <time>2024-01-16T16:45:19Z</time>
      </trkpt>
      <trkpt lat="46.63354" lon="6.15733">
        <ele>1200.7</ele>
        <time>2024-01-16T16:45:28Z</time>
      </trkpt>
      <trkpt lat="46.63411" lon="6.15717">
        <ele>1197.1</ele>
        <time>2024-01-16T16:45:37Z</time>
      </trkpt>
      <trkpt lat="46.63465" lon="6.15694">
        <ele>1193.1</ele>
        <time>2024-01-16T16:45:46Z</time>
      </trkpt>
      <trkpt lat="46.63471" lon="6.15687">
        <ele>1192.5</ele>
        <time>2024-01-16T16:45:47Z</time>
      </trkpt>
      <trkpt lat="46.63483" lon="6.15673">
        <ele>1191.2</ele>
        <time>2024-01-16T16:45:49Z</time>
      </trkpt>
      <trkpt lat="46.63518" lon="6.15603">
        <ele>1187.3</ele>
        <time>2024-01-16T16:45:57Z</time>
      </trkpt>
      <trkpt lat="46.63528" lon="6.15588">
        <ele>1186.6</ele>
        <time>2024-01-16T16:45:59Z</time>
      </trkpt>
      <trkpt lat="46.6356" lon="6.15543">
        <ele>1185.4</ele>
        <time>2024-01-16T16:46:06Z</time>
      </trkpt>
      <trkpt lat="46.63564" lon="6.15526">
        <ele>1184.8</ele>
        <time>2024-01-16T16:46:08Z</time>
      </trkpt>
      <trkpt lat="46.63563" lon="6.15502">
        <ele>1184</ele>
        <time>2024-01-16T16:46:11Z</time>
      </trkpt>
      <trkpt lat="46.63545" lon="6.15424">
        <ele>1179.8</ele>
        <time>2024-01-16T16:46:20Z</time>
      </trkpt>
      <trkpt lat="46.63546" lon="6.15342">
        <ele>1176.1</ele>
        <time>2024-01-16T16:46:29Z</time>
      </trkpt>
      <trkpt lat="46.63549" lon="6.15335">
        <ele>1176</ele>
        <time>2024-01-16T16:46:30Z</time>
      </trkpt>
      <trkpt lat="46.63561" lon="6.15316">
        <ele>1175.8</ele>
        <time>2024-01-16T16:46:34Z</time>
      </trkpt>
      <trkpt lat="46.63568" lon="6.15307">
        <ele>1175.6</ele>
        <time>2024-01-16T16:46:36Z</time>
      </trkpt>
      <trkpt lat="46.63613" lon="6.15258">
        <ele>1171.9</ele>
        <time>2024-01-16T16:46:45Z</time>
      </trkpt>
      <trkpt lat="46.63653" lon="6.15214">
        <ele>1168.2</ele>
        <time>2024-01-16T16:46:52Z</time>
      </trkpt>
      <trkpt lat="46.63674" lon="6.15196">
        <ele>1167.2</ele>
        <time>2024-01-16T16:46:56Z</time>
      </trkpt>
      <trkpt lat="46.63683" lon="6.15185">
        <ele>1166.8</ele>
        <time>2024-01-16T16:46:58Z</time>
      </trkpt>
      <trkpt lat="46.63713" lon="6.15145">
        <ele>1165.1</ele>
        <time>2024-01-16T16:47:05Z</time>
      </trkpt>
      <trkpt lat="46.63719" lon="6.15132">
        <ele>1164.8</ele>
        <time>2024-01-16T16:47:07Z</time>
      </trkpt>
      <trkpt lat="46.63721" lon="6.15116">
        <ele>1164.4</ele>
        <time>2024-01-16T16:47:09Z</time>
      </trkpt>
      <trkpt lat="46.6372" lon="6.15094">
        <ele>1163.9</ele>
        <time>2024-01-16T16:47:12Z</time>
      </trkpt>
      <trkpt lat="46.63725" lon="6.15056">
        <ele>1163.1</ele>
        <time>2024-01-16T16:47:17Z</time>
      </trkpt>
      <trkpt lat="46.63732" lon="6.14989">
        <ele>1164.6</ele>
        <time>2024-01-16T16:47:30Z</time>
      </trkpt>
      <trkpt lat="46.6378" lon="6.15026">
        <ele>1164.4</ele>
        <time>2024-01-16T16:47:46Z</time>
      </trkpt>
      <trkpt lat="46.63789" lon="6.15031">
        <ele>1163.7</ele>
        <time>2024-01-16T16:47:48Z</time>
      </trkpt>
      <trkpt lat="46.638" lon="6.15032">
        <ele>1162.8</ele>
        <time>2024-01-16T16:47:50Z</time>
      </trkpt>
      <trkpt lat="46.63811" lon="6.15029">
        <ele>1161.8</ele>
        <time>2024-01-16T16:47:52Z</time>
      </trkpt>
      <trkpt lat="46.63823" lon="6.1502">
        <ele>1160.7</ele>
        <time>2024-01-16T16:47:54Z</time>
      </trkpt>
      <trkpt lat="46.63831" lon="6.15005">
        <ele>1159.6</ele>
        <time>2024-01-16T16:47:56Z</time>
      </trkpt>
      <trkpt lat="46.63834" lon="6.14987">
        <ele>1158.7</ele>
        <time>2024-01-16T16:47:58Z</time>
      </trkpt>
      <trkpt lat="46.63838" lon="6.14954">
        <ele>1158.1</ele>
        <time>2024-01-16T16:48:02Z</time>
      </trkpt>
      <trkpt lat="46.63842" lon="6.14943">
        <ele>1158.3</ele>
        <time>2024-01-16T16:48:04Z</time>
      </trkpt>
      <trkpt lat="46.63882" lon="6.14893">
        <ele>1160.4</ele>
        <time>2024-01-16T16:48:19Z</time>
      </trkpt>
      <trkpt lat="46.63887" lon="6.14881">
        <ele>1160.3</ele>
        <time>2024-01-16T16:48:21Z</time>
      </trkpt>
      <trkpt lat="46.63895" lon="6.14857">
        <ele>1160.6</ele>
        <time>2024-01-16T16:48:25Z</time>
      </trkpt>
      <trkpt lat="46.639" lon="6.1484">
        <ele>1160.9</ele>
        <time>2024-01-16T16:48:28Z</time>
      </trkpt>
      <trkpt lat="46.63902" lon="6.14827">
        <ele>1161</ele>
        <time>2024-01-16T16:48:30Z</time>
      </trkpt>
      <trkpt lat="46.63906" lon="6.14764">
        <ele>1160.2</ele>
        <time>2024-01-16T16:48:41Z</time>
      </trkpt>
      <trkpt lat="46.6391" lon="6.14736">
        <ele>1158.4</ele>
        <time>2024-01-16T16:48:45Z</time>
      </trkpt>
      <trkpt lat="46.63914" lon="6.14722">
        <ele>1157.3</ele>
        <time>2024-01-16T16:48:47Z</time>
      </trkpt>
      <trkpt lat="46.63922" lon="6.14708">
        <ele>1155.9</ele>
        <time>2024-01-16T16:48:49Z</time>
      </trkpt>
      <trkpt lat="46.63969" lon="6.14657">
        <ele>1150</ele>
        <time>2024-01-16T16:48:57Z</time>
      </trkpt>
      <trkpt lat="46.63991" lon="6.14634">
        <ele>1148.9</ele>
        <time>2024-01-16T16:49:01Z</time>
      </trkpt>
      <trkpt lat="46.64026" lon="6.1457">
        <ele>1145.7</ele>
        <time>2024-01-16T16:49:10Z</time>
      </trkpt>
      <trkpt lat="46.64069" lon="6.1452">
        <ele>1143.8</ele>
        <time>2024-01-16T16:49:21Z</time>
      </trkpt>
      <trkpt lat="46.64117" lon="6.14479">
        <ele>1142.6</ele>
        <time>2024-01-16T16:49:34Z</time>
      </trkpt>
      <trkpt lat="46.64121" lon="6.14476">
        <ele>1142.5</ele>
        <time>2024-01-16T16:49:35Z</time>
      </trkpt>
      <trkpt lat="46.64145" lon="6.14454">
        <ele>1142</ele>
        <time>2024-01-16T16:49:42Z</time>
      </trkpt>
      <trkpt lat="46.64173" lon="6.1442">
        <ele>1140.7</ele>
        <time>2024-01-16T16:49:50Z</time>
      </trkpt>
      <trkpt lat="46.64181" lon="6.14402">
        <ele>1140.2</ele>
        <time>2024-01-16T16:49:53Z</time>
      </trkpt>
      <trkpt lat="46.64189" lon="6.1438">
        <ele>1139.5</ele>
        <time>2024-01-16T16:49:58Z</time>
      </trkpt>
      <trkpt lat="46.64191" lon="6.14368">
        <ele>1139.2</ele>
        <time>2024-01-16T16:50:00Z</time>
      </trkpt>
      <trkpt lat="46.64215" lon="6.14298">
        <ele>1140.2</ele>
        <time>2024-01-16T16:50:15Z</time>
      </trkpt>
      <trkpt lat="46.64256" lon="6.14242">
        <ele>1142.7</ele>
        <time>2024-01-16T16:50:37Z</time>
      </trkpt>
      <trkpt lat="46.6427" lon="6.14225">
        <ele>1142.5</ele>
        <time>2024-01-16T16:50:43Z</time>
      </trkpt>
      <trkpt lat="46.64323" lon="6.1421">
        <ele>1142.2</ele>
        <time>2024-01-16T16:51:01Z</time>
      </trkpt>
      <trkpt lat="46.64358" lon="6.14196">
        <ele>1141.9</ele>
        <time>2024-01-16T16:51:14Z</time>
      </trkpt>
      <trkpt lat="46.64368" lon="6.14182">
        <ele>1141.3</ele>
        <time>2024-01-16T16:51:17Z</time>
      </trkpt>
      <trkpt lat="46.64387" lon="6.14118">
        <ele>1141.1</ele>
        <time>2024-01-16T16:51:37Z</time>
      </trkpt>
      <trkpt lat="46.64389" lon="6.14117">
        <ele>1141.1</ele>
        <time>2024-01-16T16:51:39Z</time>
      </trkpt>
      <trkpt lat="46.64389" lon="6.14122">
        <ele>1141.1</ele>
        <time>2024-01-16T16:52:15Z</time>
      </trkpt>
      <trkpt lat="46.64379" lon="6.14135">
        <ele>1140.9</ele>
        <time>2024-01-16T16:52:20Z</time>
      </trkpt>
      <trkpt lat="46.64363" lon="6.14124">
        <ele>1140.1</ele>
        <time>2024-01-16T16:52:26Z</time>
      </trkpt>
    </trkseg>
  </trk>
</gpx>